Time;durP1;ratioP1;P1;durP2;ratioP2;P2;SDS_P1;SDS_P2;PMS_P1;PMS_P2;Temp;Humidity;BMP_temperature;BMP_pressure;BME280_temperature;BME280_humidity;BME280_pressure;Samples;Min_cycle;Max_cycle;Signal;HPM_P1;HPM_P2
2022/01/01 00:02:12;;;;;;;10.63;7.43;;;11.00;92.70;;;;;;5149517;28;20045;-78
2022/01/01 00:05:07;;;;;;;13.50;8.00;;;10.90;92.90;;;;;;5150472;28;20045;-73
2022/01/01 00:07:40;;;;;;;9.82;7.07;;;10.80;93.00;;;;;;5129678;28;20053;-75
2022/01/01 00:10:12;;;;;;;12.18;7.70;;;10.90;93.10;;;;;;5162204;28;20937;-74
2022/01/01 00:12:46;;;;;;;10.88;6.28;;;10.90;93.50;;;;;;5156891;28;20053;-75
2022/01/01 00:15:20;;;;;;;10.40;6.32;;;10.90;93.20;;;;;;5144852;28;20046;-76
2022/01/01 00:17:53;;;;;;;7.82;5.50;;;10.90;93.60;;;;;;5144631;28;20060;-75
2022/01/01 00:20:25;;;;;;;10.55;6.75;;;11.00;93.30;;;;;;5160910;28;20049;-76
2022/01/01 00:22:58;;;;;;;7.57;4.95;;;11.00;93.40;;;;;;5154729;28;20053;-75
2022/01/01 00:25:30;;;;;;;8.65;4.80;;;11.00;93.20;;;;;;5156797;28;20042;-76
2022/01/01 00:28:02;;;;;;;7.43;4.63;;;11.00;93.50;;;;;;5168009;28;20038;-76
2022/01/01 00:30:35;;;;;;;9.77;5.78;;;10.90;93.20;;;;;;5167014;28;20053;-76
2022/01/01 00:33:07;;;;;;;8.23;4.80;;;10.90;93.20;;;;;;5167640;28;20053;-75
2022/01/01 00:35:40;;;;;;;6.32;4.35;;;10.90;93.00;;;;;;5168703;28;20062;-76
2022/01/01 00:38:12;;;;;;;6.07;3.80;;;10.90;92.90;;;;;;5173682;28;20511;-74
2022/01/01 00:40:45;;;;;;;7.35;4.32;;;10.80;92.80;;;;;;5170174;28;20054;-73
2022/01/01 00:43:17;;;;;;;6.13;3.92;;;10.90;92.90;;;;;;5169901;28;20049;-76
2022/01/01 00:45:50;;;;;;;7.15;4.60;;;10.80;93.30;;;;;;5169919;28;20043;-76
2022/01/01 00:48:22;;;;;;;7.03;4.55;;;10.80;93.30;;;;;;5167334;28;20037;-76
2022/01/01 00:50:56;;;;;;;8.70;5.18;;;10.70;93.50;;;;;;5170612;28;20056;-77
2022/01/01 00:53:30;;;;;;;7.20;4.97;;;10.70;93.70;;;;;;5139871;28;20464;-76
2022/01/01 00:56:03;;;;;;;7.50;4.78;;;10.60;93.70;;;;;;5151600;28;20062;-77
2022/01/01 00:58:36;;;;;;;8.95;5.45;;;10.60;93.70;;;;;;5169531;28;20050;-75
2022/01/01 01:01:08;;;;;;;9.98;5.78;;;10.60;93.70;;;;;;5149656;28;20053;-75
2022/01/01 01:03:41;;;;;;;12.45;7.28;;;10.50;93.60;;;;;;5171799;28;20515;-76
2022/01/01 01:06:14;;;;;;;13.50;7.22;;;10.50;93.90;;;;;;5159746;28;20054;-76
2022/01/01 01:08:46;;;;;;;12.00;7.45;;;10.50;94.00;;;;;;5168414;28;20073;-75
2022/01/01 01:11:18;;;;;;;14.15;8.07;;;10.50;94.40;;;;;;5152659;28;20041;-78
2022/01/01 01:14:07;;;;;;;16.27;8.82;;;10.40;94.70;;;;;;5152719;28;20512;-77
2022/01/01 01:16:39;;;;;;;18.77;10.60;;;10.40;95.10;;;;;;5163526;28;20505;-77
2022/01/01 01:19:11;;;;;;;24.30;11.48;;;10.30;95.10;;;;;;5154255;28;20050;-76
2022/01/01 01:21:44;;;;;;;21.77;10.95;;;10.30;95.20;;;;;;5163638;28;20045;-75
2022/01/01 01:24:18;;;;;;;20.73;10.40;;;10.20;95.40;;;;;;5166484;28;20034;-77
2022/01/01 01:26:51;;;;;;;18.23;9.75;;;10.20;95.40;;;;;;5162880;28;20042;-75
2022/01/01 01:29:24;;;;;;;14.68;8.95;;;10.10;95.30;;;;;;5145606;28;20049;-76
2022/01/01 01:31:56;;;;;;;14.85;9.10;;;10.10;95.10;;;;;;5169243;28;20145;-77
2022/01/01 01:34:29;;;;;;;12.70;7.32;;;10.10;95.40;;;;;;5166912;28;20049;-76
2022/01/01 01:37:02;;;;;;;11.50;6.55;;;10.10;95.60;;;;;;5164148;28;20412;-75
2022/01/01 01:39:34;;;;;;;11.27;6.25;;;10.00;95.70;;;;;;5164037;28;20043;-75
2022/01/01 01:42:07;;;;;;;8.10;5.68;;;10.10;96.00;;;;;;5164456;28;20046;-73
2022/01/01 01:44:43;;;;;;;8.95;5.80;;;10.10;96.00;;;;;;5154239;28;20052;-76
2022/01/01 01:47:17;;;;;;;10.43;5.38;;;10.10;95.90;;;;;;5147338;28;20130;-74
2022/01/01 01:49:49;;;;;;;6.78;5.22;;;10.10;95.90;;;;;;5168948;28;20050;-75
2022/01/01 01:52:22;;;;;;;7.65;5.28;;;10.10;95.60;;;;;;5166644;28;20057;-75
2022/01/01 01:54:55;;;;;;;10.20;6.00;;;9.90;95.60;;;;;;5175936;28;20046;-75
2022/01/01 01:57:29;;;;;;;8.38;4.88;;;10.00;95.60;;;;;;5171359;28;20057;-74
2022/01/01 02:00:05;;;;;;;9.45;4.78;;;10.00;95.70;;;;;;5170504;28;20053;-75
2022/01/01 02:02:44;;;;;;;8.60;5.53;;;10.00;95.90;;;;;;5168223;28;20042;-76
2022/01/01 02:05:17;;;;;;;8.40;5.00;;;9.90;96.10;;;;;;5148379;28;20499;-76
2022/01/01 02:07:50;;;;;;;10.20;5.43;;;9.90;96.00;;;;;;5172134;28;20042;-76
2022/01/01 02:10:23;;;;;;;6.90;4.88;;;9.90;96.40;;;;;;5170235;28;20416;-76
2022/01/01 02:12:56;;;;;;;7.35;5.10;;;9.90;96.70;;;;;;5161916;28;20420;-76
2022/01/01 02:18:11;;;;;;;6.65;4.97;;;9.90;97.10;;;;;;5180055;28;20042;-76
2022/01/01 02:20:50;;;;;;;7.05;4.47;;;9.90;97.20;;;;;;5170908;28;20492;-78
2022/01/01 02:23:25;;;;;;;7.07;4.35;;;9.90;97.20;;;;;;5160547;28;20068;-75
2022/01/01 02:25:58;;;;;;;7.13;4.50;;;9.90;97.40;;;;;;5174273;28;20057;-77
2022/01/01 02:28:30;;;;;;;5.53;3.85;;;9.80;97.40;;;;;;5154198;28;20077;-76
2022/01/01 02:31:03;;;;;;;6.65;4.43;;;9.80;97.30;;;;;;5170849;28;20052;-77
2022/01/01 02:33:37;;;;;;;7.40;4.22;;;9.80;97.70;;;;;;5168568;28;20057;-74
2022/01/01 02:36:09;;;;;;;8.57;3.80;;;9.70;98.10;;;;;;5152437;28;20046;-77
2022/01/01 02:38:42;;;;;;;6.30;4.38;;;9.70;98.20;;;;;;5167789;28;20050;-76
2022/01/01 02:41:15;;;;;;;6.53;3.88;;;9.60;97.90;;;;;;5166507;28;20042;-76
2022/01/01 02:43:48;;;;;;;6.47;3.80;;;9.50;98.00;;;;;;5170462;28;20053;-75
2022/01/01 02:46:20;;;;;;;6.25;3.95;;;9.50;98.10;;;;;;5170862;28;20413;-77
2022/01/01 02:48:53;;;;;;;5.47;3.92;;;9.40;98.30;;;;;;5169946;28;20399;-77
2022/01/01 02:51:25;;;;;;;6.15;3.55;;;9.30;98.30;;;;;;5169398;28;20428;-77
2022/01/01 02:53:57;;;;;;;4.78;3.83;;;9.30;98.40;;;;;;5166582;28;20065;-75
2022/01/01 02:56:30;;;;;;;5.47;4.10;;;9.10;98.70;;;;;;5148606;28;20565;-76
2022/01/01 02:59:02;;;;;;;7.53;4.13;;;9.20;99.10;;;;;;5169793;28;20065;-76
2022/01/01 03:01:34;;;;;;;6.13;4.10;;;9.10;99.50;;;;;;5166479;28;20046;-75
2022/01/01 03:04:07;;;;;;;5.60;3.78;;;9.10;99.70;;;;;;5169224;28;20046;-76
2022/01/01 03:06:39;;;;;;;5.13;3.85;;;9.00;99.80;;;;;;5171359;28;20046;-75
2022/01/01 03:09:12;;;;;;;6.20;3.65;;;9.00;99.90;;;;;;5172085;28;20056;-76
2022/01/01 03:11:44;;;;;;;5.65;4.03;;;8.90;99.90;;;;;;5170386;28;20046;-74
2022/01/01 03:14:17;;;;;;;5.25;4.03;;;8.90;99.90;;;;;;5170366;28;20046;-75
2022/01/01 03:16:51;;;;;;;7.20;4.30;;;8.80;99.90;;;;;;5168013;28;20046;-75
2022/01/01 03:19:23;;;;;;;6.47;4.50;;;8.70;99.90;;;;;;5177188;28;20045;-75
2022/01/01 03:21:56;;;;;;;10.27;4.53;;;8.80;99.90;;;;;;5172358;28;20049;-74
2022/01/01 03:24:28;;;;;;;7.65;4.70;;;8.60;99.90;;;;;;5153467;28;20037;-75
2022/01/01 03:27:02;;;;;;;7.78;4.45;;;8.60;99.90;;;;;;5167981;28;20428;-75
2022/01/01 03:29:35;;;;;;;8.57;4.53;;;8.50;99.90;;;;;;5168103;28;20038;-75
2022/01/01 03:32:07;;;;;;;6.55;4.10;;;8.40;99.90;;;;;;5161718;28;20046;-77
2022/01/01 03:34:40;;;;;;;8.55;4.40;;;8.40;99.90;;;;;;5148766;28;20065;-74
2022/01/01 03:37:12;;;;;;;14.27;4.13;;;8.30;99.90;;;;;;5147951;28;20098;-76
2022/01/01 03:39:45;;;;;;;7.25;4.05;;;8.30;99.90;;;;;;5170732;28;20046;-75
2022/01/01 03:42:17;;;;;;;8.68;4.25;;;8.20;99.90;;;;;;5165317;28;20041;-74
2022/01/01 03:44:49;;;;;;;5.72;3.65;;;8.10;99.90;;;;;;5148721;28;20051;-75
2022/01/01 03:47:22;;;;;;;7.18;4.22;;;8.10;99.90;;;;;;5161801;28;20070;-74
2022/01/01 03:49:55;;;;;;;6.65;4.50;;;8.10;99.90;;;;;;5153989;28;20519;-75
2022/01/01 03:52:27;;;;;;;11.93;4.72;;;8.00;99.90;;;;;;5166766;28;20534;-74
2022/01/01 03:55:00;;;;;;;7.45;3.80;;;8.00;99.90;;;;;;5169576;28;20054;-75
2022/01/01 03:57:32;;;;;;;5.75;3.85;;;7.90;99.90;;;;;;5151882;28;20057;-75
2022/01/01 04:00:06;;;;;;;8.52;5.00;;;7.90;99.90;;;;;;5151690;28;20050;-74
2022/01/01 04:02:45;;;;;;;7.28;4.30;;;7.90;99.90;;;;;;5163714;28;20528;-75
2022/01/01 04:05:17;;;;;;;10.00;4.63;;;7.80;99.90;;;;;;5168819;28;20047;-75
2022/01/01 04:07:51;;;;;;;8.63;4.00;;;7.80;99.90;;;;;;5167488;28;20057;-76
2022/01/01 04:10:24;;;;;;;6.97;3.85;;;7.80;99.90;;;;;;5169306;28;20554;-77
2022/01/01 04:12:58;;;;;;;7.72;3.75;;;7.70;99.90;;;;;;5167285;28;20293;-76
2022/01/01 04:15:32;;;;;;;10.88;4.50;;;7.70;99.90;;;;;;5166979;28;20042;-75
2022/01/01 04:18:11;;;;;;;6.68;4.47;;;7.70;99.90;;;;;;5157076;28;20049;-74
2022/01/01 04:20:45;;;;;;;9.05;4.47;;;7.70;99.90;;;;;;5172450;28;20057;-75
2022/01/01 04:23:17;;;;;;;8.00;4.63;;;7.60;99.90;;;;;;5173360;28;20500;-75
2022/01/01 04:25:50;;;;;;;7.30;4.75;;;7.60;99.90;;;;;;5174543;28;20065;-77
2022/01/01 04:28:22;;;;;;;7.97;4.75;;;7.60;99.90;;;;;;5157017;28;20539;-74
2022/01/01 04:30:54;;;;;;;9.95;5.45;;;7.50;99.90;;;;;;5163991;28;20057;-74
2022/01/01 04:33:27;;;;;;;9.65;6.70;;;7.50;99.90;;;;;;5150007;28;20057;-75
2022/01/01 04:35:59;;;;;;;12.98;6.72;;;7.50;99.90;;;;;;5168593;28;20504;-75
2022/01/01 04:38:40;;;;;;;12.63;7.60;;;7.40;99.90;;;;;;5164913;28;20038;-76
2022/01/01 04:41:14;;;;;;;16.25;7.72;;;7.40;99.90;;;;;;5167351;28;20045;-75
2022/01/01 04:43:50;;;;;;;15.30;7.88;;;7.40;99.90;;;;;;5167416;28;20461;-76
2022/01/01 04:46:22;;;;;;;15.15;9.10;;;7.30;99.90;;;;;;5166440;28;20049;-75
2022/01/01 04:48:55;;;;;;;14.05;8.48;;;7.30;99.90;;;;;;5162111;28;20046;-75
2022/01/01 04:51:27;;;;;;;14.95;8.98;;;7.30;99.90;;;;;;5166092;28;20058;-73
2022/01/01 04:54:02;;;;;;;14.77;8.65;;;7.30;99.90;;;;;;5166422;28;20053;-75
2022/01/01 04:56:36;;;;;;;15.70;8.85;;;7.30;99.90;;;;;;5165866;28;20037;-75
2022/01/01 04:59:09;;;;;;;17.73;9.70;;;7.20;99.90;;;;;;5148571;28;20054;-74
2022/01/01 05:01:42;;;;;;;16.48;10.18;;;7.20;99.90;;;;;;5164560;28;20057;-75
2022/01/01 05:04:14;;;;;;;14.80;8.60;;;7.20;99.90;;;;;;5135435;28;20050;-75
2022/01/01 05:06:49;;;;;;;22.08;10.95;;;7.20;99.90;;;;;;5163016;28;20042;-75
2022/01/01 05:09:21;;;;;;;25.55;11.88;;;7.10;99.90;;;;;;5151249;28;20535;-75
2022/01/01 05:11:54;;;;;;;27.08;13.93;;;7.10;99.90;;;;;;5165237;28;20053;-75
2022/01/01 05:14:27;;;;;;;30.90;15.95;;;7.10;99.90;;;;;;5164875;28;20050;-73
2022/01/01 05:17:00;;;;;;;31.40;15.50;;;7.00;99.90;;;;;;5150504;28;20050;-76
2022/01/01 05:19:32;;;;;;;29.42;14.60;;;7.00;99.90;;;;;;5166124;28;20043;-75
2022/01/01 05:22:05;;;;;;;27.63;14.98;;;6.90;99.90;;;;;;5163007;28;20046;-72
2022/01/01 05:24:37;;;;;;;30.42;14.70;;;8.40;99.90;;;;;;5166375;28;20046;-75
2022/01/01 05:27:09;;;;;;;24.00;13.82;;;6.80;99.90;;;;;;5162215;28;20415;-76
2022/01/01 05:29:42;;;;;;;20.67;12.02;;;6.90;99.90;;;;;;5169290;28;20169;-75
2022/01/01 05:32:14;;;;;;;20.05;11.55;;;6.80;99.90;;;;;;5165401;28;20042;-74
2022/01/01 05:34:46;;;;;;;19.92;11.68;;;6.80;99.90;;;;;;5169276;28;20060;-75
2022/01/01 05:37:19;;;;;;;23.27;11.38;;;6.80;99.90;;;;;;5163669;28;20513;-76
2022/01/01 05:39:51;;;;;;;24.17;12.32;;;6.80;99.90;;;;;;5169323;28;20042;-76
2022/01/01 05:42:23;;;;;;;19.83;10.80;;;6.80;99.90;;;;;;5177647;28;20042;-75
2022/01/01 05:44:56;;;;;;;19.05;9.85;;;6.70;99.90;;;;;;5174303;28;20538;-76
2022/01/01 05:47:28;;;;;;;20.83;9.73;;;6.70;99.90;;;;;;5169262;28;20053;-75
2022/01/01 05:50:01;;;;;;;18.38;10.07;;;6.70;99.90;;;;;;5168956;28;20483;-75
2022/01/01 05:52:33;;;;;;;18.20;9.63;;;6.70;99.90;;;;;;5163658;28;20428;-75
2022/01/01 05:55:06;;;;;;;16.40;9.65;;;6.60;99.90;;;;;;5171455;28;20038;-75
2022/01/01 05:57:38;;;;;;;14.70;8.52;;;6.70;99.90;;;;;;5168952;28;20420;-75
2022/01/01 06:00:13;;;;;;;13.25;8.18;;;6.60;99.90;;;;;;5163574;28;20053;-76
2022/01/01 06:02:45;;;;;;;14.35;7.97;;;6.60;99.90;;;;;;5166046;28;20049;-74
2022/01/01 06:05:18;;;;;;;12.75;7.20;;;6.60;99.90;;;;;;5156480;28;20430;-74
2022/01/01 06:07:50;;;;;;;13.13;6.72;;;6.60;99.90;;;;;;5157625;28;20424;-74
2022/01/01 06:10:23;;;;;;;12.43;6.03;;;6.60;99.90;;;;;;5153025;28;20061;-75
2022/01/01 06:12:56;;;;;;;13.80;7.00;;;6.60;99.90;;;;;;5164460;28;20505;-74
2022/01/01 06:15:29;;;;;;;10.15;6.63;;;6.50;99.90;;;;;;5152480;28;20050;-75
2022/01/01 06:18:02;;;;;;;11.63;7.40;;;6.50;99.90;;;;;;5169308;28;20053;-75
2022/01/01 06:20:34;;;;;;;12.13;6.20;;;6.50;99.90;;;;;;5136275;28;20061;-75
2022/01/01 06:23:08;;;;;;;11.77;6.15;;;6.50;99.90;;;;;;5169212;28;20046;-74
2022/01/01 06:25:40;;;;;;;9.38;5.90;;;6.50;99.90;;;;;;5164636;28;20042;-74
2022/01/01 06:28:13;;;;;;;9.40;5.75;;;7.70;99.90;;;;;;5138385;28;20034;-74
2022/01/01 06:30:45;;;;;;;10.23;5.80;;;6.40;99.90;;;;;;5150856;28;20049;-75
2022/01/01 06:33:18;;;;;;;9.85;5.80;;;6.40;99.90;;;;;;5166391;28;20056;-76
2022/01/01 06:35:50;;;;;;;9.17;5.97;;;6.40;99.90;;;;;;5157352;28;20054;-73
2022/01/01 06:38:23;;;;;;;10.05;5.82;;;6.40;99.90;;;;;;5161558;28;20761;-74
2022/01/01 06:40:55;;;;;;;15.20;5.15;;;6.40;99.90;;;;;;5164103;28;20045;-74
2022/01/01 06:43:28;;;;;;;8.48;5.18;;;6.30;99.90;;;;;;5174938;28;20046;-75
2022/01/01 06:46:01;;;;;;;6.88;4.97;;;6.30;99.90;;;;;;5172463;28;20440;-74
2022/01/01 06:48:34;;;;;;;9.45;5.35;;;6.40;99.90;;;;;;5171467;28;20065;-74
2022/01/01 06:51:07;;;;;;;8.73;5.00;;;6.30;99.90;;;;;;5170316;28;20408;-76
2022/01/01 06:53:39;;;;;;;8.30;5.03;;;6.30;99.90;;;;;;5170919;28;20427;-75
2022/01/01 06:56:12;;;;;;;8.00;5.13;;;6.30;99.90;;;;;;5169836;28;20045;-76
2022/01/01 06:58:45;;;;;;;7.45;5.15;;;6.30;99.90;;;;;;5171725;28;20496;-76
2022/01/01 07:01:17;;;;;;;12.00;5.40;;;6.30;99.90;;;;;;5120260;28;20046;-77
2022/01/01 07:03:50;;;;;;;8.50;4.88;;;6.30;99.90;;;;;;5173526;28;20050;-75
2022/01/01 07:06:22;;;;;;;9.13;5.28;;;6.30;99.90;;;;;;5167901;28;20046;-75
2022/01/01 07:08:54;;;;;;;10.38;5.43;;;6.20;99.90;;;;;;5159952;28;20542;-77
2022/01/01 07:11:27;;;;;;;9.20;5.15;;;7.50;99.90;;;;;;5205262;23;20041;-86
2022/01/01 07:13:59;;;;;;;6.57;4.65;;;6.20;99.90;;;;;;5212503;28;20052;-85
2022/01/01 07:16:32;;;;;;;7.88;4.32;;;6.20;99.90;;;;;;5202822;28;20052;-85
2022/01/01 07:19:04;;;;;;;7.95;5.05;;;6.10;99.90;;;;;;5180311;28;20054;-85
2022/01/01 07:21:36;;;;;;;6.88;4.57;;;6.10;99.90;;;;;;5192692;28;20305;-85
2022/01/01 07:24:09;;;;;;;9.68;5.10;;;6.10;99.90;;;;;;5202646;23;20029;-30
2022/01/01 07:26:41;;;;;;;9.95;4.50;;;6.10;99.90;;;;;;5203148;28;20236;-31
2022/01/01 07:29:13;;;;;;;6.82;4.45;;;6.10;99.90;;;;;;5195863;28;20515;-31
2022/01/01 07:31:46;;;;;;;8.85;4.78;;;6.10;99.90;;;;;;5187638;28;20053;-31
2022/01/01 07:34:22;;;;;;;8.57;4.85;;;6.10;99.90;;;;;;5191972;28;20056;-31
2022/01/01 07:36:54;;;;;;;9.52;5.00;;;6.10;99.90;;;;;;5185907;28;20052;-31
2022/01/01 07:39:27;;;;;;;6.57;4.60;;;6.00;99.90;;;;;;5195091;28;20567;-31
2022/01/01 07:41:59;;;;;;;6.50;4.30;;;6.00;99.90;;;;;;5194453;28;20032;-32
2022/01/01 07:44:32;;;;;;;7.43;4.68;;;6.00;99.90;;;;;;5195753;28;20049;-31
2022/01/01 07:47:04;;;;;;;5.97;3.92;;;6.00;99.90;;;;;;5188928;28;20049;-31
2022/01/01 07:49:37;;;;;;;7.82;4.63;;;6.00;99.90;;;;;;5185646;28;20336;-32
2022/01/01 07:52:09;;;;;;;7.18;4.38;;;6.10;99.90;;;;;;5183850;28;20405;-31
2022/01/01 07:54:42;;;;;;;11.43;4.75;;;6.10;99.90;;;;;;5188022;28;20049;-30
2022/01/01 07:57:14;;;;;;;8.73;4.78;;;6.10;99.90;;;;;;5188032;28;20052;-31
2022/01/01 07:59:46;;;;;;;8.45;5.35;;;6.10;99.90;;;;;;5181720;28;20068;-31
2022/01/01 08:02:19;;;;;;;7.45;4.43;;;5.70;99.90;;;;;;5190148;28;20512;-32
2022/01/01 08:04:52;;;;;;;7.45;4.53;;;6.20;99.90;;;;;;5183391;28;20568;-31
2022/01/01 08:07:24;;;;;;;8.68;5.35;;;6.20;99.90;;;;;;5179756;28;20131;-31
2022/01/01 08:10:19;;;;;;;5.45;3.95;;;6.20;99.90;;;;;;5185698;28;20040;-31
2022/01/01 08:12:52;;;;;;;6.55;4.40;;;6.30;99.90;;;;;;5190428;28;20072;-31
2022/01/01 08:15:24;;;;;;;9.93;4.80;;;6.30;99.90;;;;;;5189686;28;20053;-30
2022/01/01 08:17:57;;;;;;;8.43;4.97;;;6.30;99.90;;;;;;5191193;28;20091;-31
2022/01/01 08:20:41;;;;;;;7.72;4.55;;;6.30;99.90;;;;;;5177077;28;20067;-31
2022/01/01 08:23:15;;;;;;;6.53;4.80;;;6.30;99.90;;;;;;5187923;28;20646;-32
2022/01/01 08:25:47;;;;;;;7.40;5.07;;;6.40;99.90;;;;;;5188275;28;20049;-30
2022/01/01 08:28:20;;;;;;;6.82;4.95;;;6.40;99.90;;;;;;5193040;28;20524;-31
2022/01/01 08:30:53;;;;;;;7.45;5.05;;;6.40;99.90;;;;;;5173427;28;20626;-31
2022/01/01 08:33:25;;;;;;;12.90;4.80;;;6.50;99.90;;;;;;5191669;28;20045;-39
2022/01/01 08:35:57;;;;;;;10.02;4.72;;;6.60;99.90;;;;;;5189980;28;20042;-40
2022/01/01 08:38:31;;;;;;;6.57;4.55;;;6.70;99.90;;;;;;5171135;28;20049;-38
2022/01/01 08:41:04;;;;;;;8.30;4.57;;;6.70;99.90;;;;;;5192453;28;20049;-40
2022/01/01 08:43:37;;;;;;;6.47;4.22;;;6.80;99.90;;;;;;5192486;28;20044;-37
2022/01/01 08:46:10;;;;;;;5.55;4.10;;;6.90;99.90;;;;;;5191915;28;20045;-39
2022/01/01 08:48:43;;;;;;;8.20;4.90;;;7.00;99.90;;;;;;5186314;28;20096;-38
2022/01/01 08:51:19;;;;;;;6.22;4.25;;;7.10;99.90;;;;;;5194357;28;20049;-39
2022/01/01 08:53:52;;;;;;;6.95;4.47;;;7.20;99.90;;;;;;5195258;28;20049;-37
2022/01/01 08:56:24;;;;;;;7.38;4.35;;;7.30;99.90;;;;;;5189243;28;20639;-38
2022/01/01 08:58:57;;;;;;;7.30;4.25;;;7.40;99.90;;;;;;5199877;28;20056;-39
2022/01/01 09:01:29;;;;;;;5.88;3.75;;;7.40;99.90;;;;;;5193036;28;20582;-36
2022/01/01 09:04:03;;;;;;;7.78;4.43;;;7.50;99.90;;;;;;5197130;28;20395;-42
2022/01/01 09:06:36;;;;;;;;;;;7.70;99.90;;;;;;5188197;28;20045;-40
2022/01/01 09:09:10;;;;;;;7.32;4.05;;;7.80;99.90;;;;;;5185578;28;19947;-44
2022/01/01 09:11:42;;;;;;;6.45;4.18;;;7.90;99.90;;;;;;5209603;28;20049;-38
2022/01/01 09:14:15;;;;;;;6.10;3.95;;;8.10;99.90;;;;;;5202316;28;20053;-38
2022/01/01 09:16:48;;;;;;;9.20;4.97;;;8.20;99.90;;;;;;5185056;28;20411;-39
2022/01/01 09:19:20;;;;;;;5.40;3.80;;;8.40;99.90;;;;;;5176261;28;21051;-40
2022/01/01 09:21:53;;;;;;;6.10;3.83;;;8.60;99.90;;;;;;5175271;28;20306;-38
2022/01/01 09:24:25;;;;;;;7.03;4.32;;;8.70;99.90;;;;;;5182543;28;20052;-40
2022/01/01 09:26:58;;;;;;;10.18;4.32;;;8.80;99.90;;;;;;5186800;28;20053;-38
2022/01/01 09:29:31;;;;;;;6.55;3.80;;;8.90;99.90;;;;;;5182480;28;20778;-40
2022/01/01 09:32:04;;;;;;;5.47;3.60;;;9.10;99.90;;;;;;5187152;28;20381;-39
2022/01/01 09:34:37;;;;;;;6.63;4.10;;;9.20;99.90;;;;;;5181007;28;20061;-39
2022/01/01 09:37:09;;;;;;;5.50;3.80;;;9.30;99.90;;;;;;5184462;28;20226;-40
2022/01/01 09:39:42;;;;;;;6.63;3.95;;;9.40;99.90;;;;;;5187598;28;20303;-40
2022/01/01 09:42:15;;;;;;;7.65;3.90;;;9.50;99.90;;;;;;5187555;28;20064;-40
2022/01/01 09:44:47;;;;;;;6.53;3.90;;;9.60;99.90;;;;;;5185472;28;20067;-40
2022/01/01 09:47:20;;;;;;;6.43;3.60;;;9.70;99.90;;;;;;5190072;28;20056;-39
2022/01/01 09:49:53;;;;;;;8.87;3.93;;;9.80;99.90;;;;;;5190080;28;20127;-38
2022/01/01 09:52:25;;;;;;;6.63;4.05;;;9.90;99.00;;;;;;5192720;28;20306;-39
2022/01/01 09:54:58;;;;;;;6.50;4.07;;;9.90;97.90;;;;;;5186804;28;20049;-39
2022/01/01 09:57:30;;;;;;;6.90;4.00;;;10.00;97.20;;;;;;5188035;28;20432;-39
2022/01/01 10:00:04;;;;;;;5.65;3.58;;;10.10;96.50;;;;;;5179582;28;20046;-37
2022/01/01 10:02:37;;;;;;;6.38;3.90;;;10.10;95.50;;;;;;5177870;28;20040;-39
2022/01/01 10:05:09;;;;;;;7.38;3.75;;;10.30;95.60;;;;;;5173903;28;20047;-41
2022/01/01 10:07:42;;;;;;;6.53;3.92;;;10.30;94.70;;;;;;5179314;28;20049;-39
2022/01/01 10:10:19;;;;;;;5.55;3.72;;;10.30;94.50;;;;;;5182476;28;20057;-40
2022/01/01 10:12:52;;;;;;;5.88;4.07;;;10.40;94.30;;;;;;5188749;28;21237;-37
2022/01/01 10:15:24;;;;;;;10.73;3.70;;;10.50;94.10;;;;;;5183470;28;20053;-36
2022/01/01 10:17:57;;;;;;;7.15;3.88;;;10.60;93.80;;;;;;5187862;28;20045;-39
2022/01/01 10:20:35;;;;;;;6.93;3.67;;;10.60;93.90;;;;;;5186340;28;20053;-38
2022/01/01 10:23:15;;;;;;;5.13;3.28;;;10.70;93.80;;;;;;5186591;28;20048;-41
2022/01/01 10:28:38;;;;;;;7.10;3.88;;;10.80;93.50;;;;;;5189732;28;20060;-40
2022/01/01 10:31:11;;;;;;;11.02;4.00;;;10.90;93.20;;;;;;5181167;28;20064;-40
2022/01/01 10:33:46;;;;;;;5.72;3.60;;;10.90;92.80;;;;;;5173350;28;20346;-38
2022/01/01 10:36:20;;;;;;;6.68;3.70;;;11.00;92.80;;;;;;5179521;28;23682;-38
2022/01/01 10:38:55;;;;;;;5.15;2.97;;;11.00;91.90;;;;;;5177077;28;20493;-38
2022/01/01 10:41:27;;;;;;;7.25;3.67;;;11.10;91.90;;;;;;5187402;28;20048;-39
2022/01/01 10:44:06;;;;;;;5.45;3.30;;;11.20;91.50;;;;;;5170355;28;20045;-40
2022/01/01 10:46:41;;;;;;;6.03;3.67;;;11.20;90.60;;;;;;5171905;28;20056;-41
2022/01/01 10:52:32;;;;;;;6.97;3.53;;;11.30;89.80;;;;;;5160799;28;21151;-39
2022/01/01 10:55:07;;;;;;;6.22;3.50;;;11.30;89.70;;;;;;5171395;28;20044;-37
2022/01/01 10:57:42;;;;;;;8.18;3.15;;;11.40;90.60;;;;;;5161492;28;20045;-40
2022/01/01 11:00:17;;;;;;;6.57;3.40;;;11.50;90.20;;;;;;5177129;28;20054;-40
2022/01/01 11:02:54;;;;;;;4.95;2.83;;;11.50;90.70;;;;;;5179874;28;20034;-39
2022/01/01 11:05:34;;;;;;;5.57;3.28;;;11.50;90.50;;;;;;5174387;28;20053;-38
2022/01/01 11:08:09;;;;;;;3.38;2.35;;;11.50;91.10;;;;;;5173868;28;20049;-40
2022/01/01 11:10:42;;;;;;;7.80;3.00;;;11.60;91.30;;;;;;5168663;28;20056;-39
2022/01/01 11:13:15;;;;;;;4.07;2.80;;;11.70;91.70;;;;;;5171384;28;20052;-41
2022/01/01 11:15:48;;;;;;;5.00;2.72;;;11.70;91.20;;;;;;5153889;28;20410;-39
2022/01/01 11:18:22;;;;;;;4.45;2.70;;;11.80;91.50;;;;;;5165480;28;20374;-36
2022/01/01 11:20:56;;;;;;;4.45;2.90;;;11.80;91.80;;;;;;5161476;28;20052;-37
2022/01/01 11:23:30;;;;;;;6.82;2.85;;;11.90;91.50;;;;;;5164045;28;20034;-38
2022/01/01 11:26:03;;;;;;;5.32;2.95;;;11.90;91.00;;;;;;5163254;28;20765;-40
2022/01/01 11:28:36;;;;;;;5.40;2.75;;;11.90;91.00;;;;;;5172832;28;20052;-37
2022/01/01 11:31:14;;;;;;;5.97;2.80;;;11.90;90.80;;;;;;5160447;28;20486;-42
2022/01/01 11:33:55;;;;;;;6.50;2.95;;;11.90;90.80;;;;;;5174528;28;20056;-37
2022/01/01 11:36:29;;;;;;;3.97;2.75;;;11.90;90.40;;;;;;5177698;28;20068;-40
2022/01/01 11:39:07;;;;;;;3.65;2.50;;;12.00;91.30;;;;;;5166334;28;20068;-40
2022/01/01 11:41:43;;;;;;;4.82;2.42;;;12.00;91.20;;;;;;5163434;28;20049;-39
2022/01/01 11:44:27;;;;;;;4.10;2.60;;;12.00;91.40;;;;;;5164100;28;20037;-39
2022/01/01 11:47:04;;;;;;;4.15;2.58;;;12.10;90.60;;;;;;5183497;28;20048;-40
2022/01/01 11:49:37;;;;;;;3.80;2.50;;;12.20;90.50;;;;;;5171496;28;20048;-38
2022/01/01 11:52:40;;;;;;;4.57;2.40;;;12.20;91.20;;;;;;5186771;28;20509;-39
2022/01/01 11:55:15;;;;;;;6.50;3.17;;;12.20;90.60;;;;;;5192687;28;20053;-41
2022/01/01 11:57:57;;;;;;;5.68;2.72;;;12.20;90.00;;;;;;5193016;28;20533;-41
2022/01/01 12:00:30;;;;;;;3.72;2.50;;;12.30;90.30;;;;;;5188976;28;20344;-38
2022/01/01 12:03:13;;;;;;;4.82;2.42;;;12.20;90.30;;;;;;5200461;28;20048;-40
2022/01/01 12:06:03;;;;;;;5.60;2.78;;;12.30;90.10;;;;;;5193472;28;20056;-41
2022/01/01 12:08:41;;;;;;;4.50;2.78;;;12.30;89.10;;;;;;5195026;28;20433;-41
2022/01/01 12:11:31;;;;;;;5.45;2.80;;;12.30;88.30;;;;;;5189190;28;20041;-39
2022/01/01 12:14:04;;;;;;;5.78;2.78;;;12.30;88.10;;;;;;5188722;28;20556;-41
2022/01/01 12:16:49;;;;;;;3.40;2.53;;;12.30;88.30;;;;;;5178001;28;20048;-39
2022/01/01 12:19:24;;;;;;;3.78;2.60;;;12.30;87.80;;;;;;5183921;28;20056;-41
2022/01/01 12:22:07;;;;;;;4.60;2.55;;;12.30;88.90;;;;;;5195262;28;20049;-41
2022/01/01 12:24:41;;;;;;;7.05;3.08;;;12.30;88.50;;;;;;5198268;28;20409;-39
2022/01/01 12:27:14;;;;;;;;;;;12.40;87.80;;;;;;5196678;28;20064;-41
2022/01/01 12:29:46;;;;;;;5.43;3.67;;;12.40;87.00;;;;;;5190966;28;19931;-40
2022/01/01 12:32:37;;;;;;;5.90;2.75;;;12.40;88.30;;;;;;5182598;28;20594;-40
2022/01/01 12:35:15;;;;;;;5.05;3.10;;;12.40;86.60;;;;;;5191511;28;20628;-39
2022/01/01 12:37:49;;;;;;;6.50;3.22;;;12.40;87.40;;;;;;5186828;28;20049;-39
2022/01/01 12:40:24;;;;;;;5.80;2.78;;;12.30;86.70;;;;;;5184022;28;20055;-41
2022/01/01 12:43:07;;;;;;;9.38;3.63;;;12.30;86.30;;;;;;5197926;28;20052;-38
2022/01/01 12:45:41;;;;;;;5.32;2.67;;;12.30;85.30;;;;;;5192101;28;20269;-41
2022/01/01 12:48:14;;;;;;;4.28;2.55;;;12.30;85.70;;;;;;5194955;28;20041;-39
2022/01/01 12:50:53;;;;;;;4.22;2.90;;;12.40;85.90;;;;;;5196335;28;20045;-41
2022/01/01 12:53:27;;;;;;;7.65;3.13;;;12.40;85.80;;;;;;5190415;28;20045;-40
2022/01/01 12:56:04;;;;;;;4.40;2.90;;;12.40;85.70;;;;;;5193778;28;20619;-40
2022/01/01 12:58:43;;;;;;;5.43;2.33;;;12.40;85.60;;;;;;5199119;28;20628;-40
2022/01/01 13:01:20;;;;;;;4.82;2.95;;;12.50;85.10;;;;;;5187350;28;20513;-41
2022/01/01 13:04:09;;;;;;;4.18;2.53;;;12.50;85.20;;;;;;5191194;28;20414;-39
2022/01/01 13:06:44;;;;;;;3.65;2.50;;;12.40;84.10;;;;;;5200716;28;20045;-40
2022/01/01 13:09:19;;;;;;;3.58;2.53;;;12.50;85.20;;;;;;5199819;28;20029;-40
2022/01/01 13:11:57;;;;;;;6.80;2.70;;;12.50;84.70;;;;;;5198501;28;20054;-40
2022/01/01 13:14:32;;;;;;;5.82;3.00;;;12.70;84.90;;;;;;5198089;28;20064;-40
2022/01/01 13:17:04;;;;;;;4.72;3.30;;;12.70;84.60;;;;;;5193421;28;20056;-40
2022/01/01 13:19:38;;;;;;;6.40;3.00;;;12.60;84.30;;;;;;5198320;28;20041;-39
2022/01/01 13:22:11;;;;;;;;;;;12.60;84.60;;;;;;5202577;28;20046;-40
2022/01/01 13:24:43;;;;;;;5.68;3.13;;;12.50;83.90;;;;;;5201656;28;20026;-40
2022/01/01 13:27:15;;;;;;;5.07;2.65;;;12.60;84.30;;;;;;5198058;28;20041;-40
2022/01/01 13:29:48;;;;;;;4.00;2.75;;;13.10;85.70;;;;;;5199302;28;20045;-40
2022/01/01 13:32:20;;;;;;;3.88;2.53;;;12.50;86.00;;;;;;5196128;28;20049;-41
2022/01/01 13:34:53;;;;;;;6.43;3.03;;;12.60;85.60;;;;;;5196665;28;20064;-40